»·PEaware :: DIHNF KTNP-KIFP

DIHNF :: KTNP-KIFP

FLIGHT INFORMATION

Flight Status: Arrived
Operator: Unknown
More flights by this operator :: More flights under this callsign
Pilot: Klaus A. (15485)
Aircraft: BEECH AIRCRAFT BARON
(BE58)
More flights by this aircraft type
Origin: KTNP Twentynine Palms
United States
Destination: KIFP Laughlin/Bullhead Intl
United States
More flights between these airports :: More routes between these airports
Route: TNP V208 EED
File this flight plan on PilotEdge
Remarks: Departure via ODP RWY 26
Altitude:
(Current/Filed)
11,000ft
Speed:
(Current/Filed)
170kts
Departed: 10-Feb-19 10:00 AM
Arrived: 10-Feb-19 10:42 AM
Distance/Time
Traveled:
92nm/0:42
Distance/Time
To Go:
Arrived

Flight Plot

Page will automatically refresh every two minutes.


Map Options




Map Legend


Flown Route
Filed Route
Departure Airport
Arrival Airport
Navaid (VOR, NDB)
Fix

Horizontal Profiles

Position Reports

Time Latitude Longitude Heading Altitude Ground
Speed
10-Feb-19 09:37 34.135903 -115.942030 0 1884ft 0kts
10-Feb-19 09:38 34.135903 -115.942030 179 1884ft 0kts
10-Feb-19 09:39 34.135903 -115.942030 179 1884ft 0kts
10-Feb-19 09:40 34.135903 -115.942030 179 1884ft 0kts
10-Feb-19 09:41 34.135903 -115.942030 179 1884ft 0kts
10-Feb-19 09:42 34.135903 -115.942030 179 1884ft 0kts
10-Feb-19 09:43 34.135903 -115.942030 179 1884ft 0kts
10-Feb-19 09:44 34.135903 -115.942030 179 1884ft 0kts
10-Feb-19 09:45 34.135903 -115.942030 179 1884ft 0kts
10-Feb-19 09:46 34.135903 -115.942030 179 1884ft 0kts
10-Feb-19 09:47 34.135903 -115.942030 179 1884ft 0kts
10-Feb-19 09:48 34.135903 -115.942030 179 1884ft 0kts
10-Feb-19 09:49 34.135903 -115.942030 179 1884ft 0kts
10-Feb-19 09:50 34.135544 -115.941762 202 1886ft 5kts
10-Feb-19 09:51 34.135251 -115.938555 88 1891ft 14kts
10-Feb-19 09:52 34.135306 -115.935508 65 1891ft 0kts
10-Feb-19 09:53 34.135331 -115.935432 73 1891ft 5kts
10-Feb-19 09:54 34.135335 -115.935412 76 1891ft 0kts
10-Feb-19 09:55 34.134826 -115.935212 180 1891ft 0kts
10-Feb-19 09:57 34.134826 -115.935212 180 1891ft 0kts
10-Feb-19 09:58 34.134826 -115.935212 180 1891ft 0kts
10-Feb-19 09:59 34.134826 -115.935212 180 1891ft 0kts
10-Feb-19 10:00 34.134430 -115.937586 269 1891ft 61kts
10-Feb-19 10:01 34.141675 -115.969874 345 3230ft 119kts
10-Feb-19 10:02 34.151842 -115.937747 125 4662ft 139kts
10-Feb-19 10:03 34.138005 -115.894011 91 5834ft 148kts
10-Feb-19 10:04 34.130344 -115.844629 108 6885ft 152kts
10-Feb-19 10:05 34.117547 -115.789822 109 7000ft 198kts
10-Feb-19 10:06 34.134951 -115.729509 61 6859ft 203kts
10-Feb-19 10:07 34.163287 -115.672688 52 6936ft 194kts
10-Feb-19 10:08 34.193646 -115.618500 51 6980ft 195kts
10-Feb-19 10:09 34.221486 -115.562655 56 6949ft 194kts
10-Feb-19 10:10 34.249307 -115.507374 55 6994ft 192kts
10-Feb-19 10:11 34.278738 -115.452846 53 7022ft 195kts
10-Feb-19 10:12 34.306657 -115.398016 52 7601ft 182kts
10-Feb-19 10:13 34.334072 -115.345756 54 8369ft 185kts
10-Feb-19 10:14 34.361166 -115.292360 58 9026ft 187kts
10-Feb-19 10:15 34.391493 -115.240905 49 9592ft 188kts
10-Feb-19 10:15 34.416050 -115.197612 58 10049ft 188kts
10-Feb-19 10:17 34.439944 -115.128514 75 10562ft 192kts
10-Feb-19 10:18 34.463987 -115.070538 58 10982ft 196kts
10-Feb-19 10:18 34.489045 -115.021615 54 10971ft 208kts
10-Feb-19 10:19 34.521581 -114.963289 56 10998ft 212kts
10-Feb-19 10:20 34.550679 -114.901178 59 11033ft 212kts
10-Feb-19 10:22 34.587778 -114.830403 56 11019ft 216kts
10-Feb-19 10:22 34.614375 -114.778757 57 10958ft 216kts
10-Feb-19 10:23 34.646150 -114.717051 56 10988ft 215kts
10-Feb-19 10:24 34.677292 -114.655082 58 11018ft 215kts
10-Feb-19 10:25 34.708244 -114.592882 58 11034ft 215kts
10-Feb-19 10:26 34.738150 -114.533729 48 11035ft 215kts
10-Feb-19 10:27 34.789321 -114.501818 13 10175ft 210kts
10-Feb-19 10:28 34.843514 -114.478143 14 9071ft 201kts
10-Feb-19 10:29 34.894078 -114.453459 13 8241ft 193kts
10-Feb-19 10:30 34.944258 -114.431211 9 7473ft 189kts
10-Feb-19 10:31 34.994852 -114.416481 5 6782ft 185kts
10-Feb-19 10:32 35.045049 -114.409893 351 6271ft 171kts
10-Feb-19 10:33 35.085260 -114.425836 310 6228ft 154kts
10-Feb-19 10:34 35.111334 -114.438551 338 5889ft 171kts
10-Feb-19 10:35 35.158042 -114.458678 338 4774ft 185kts
10-Feb-19 10:36 35.202147 -114.473629 307 3284ft 135kts
10-Feb-19 10:37 35.204755 -114.511665 255 1981ft 104kts
10-Feb-19 10:38 35.200207 -114.545002 245 1749ft 97kts
10-Feb-19 10:39 35.181176 -114.561792 179 999ft 91kts
10-Feb-19 10:40 35.157911 -114.559592 174 705ft 49kts
10-Feb-19 10:41 35.155947 -114.557359 86 705ft 0kts
10-Feb-19 10:42 35.156514 -114.556159 264 705ft 0kts
10-Feb-19 10:43 35.156514 -114.556159 264 705ft 0kts
10-Feb-19 10:44 35.156514 -114.556159 264 705ft 0kts
10-Feb-19 10:45 35.156514 -114.556159 264 705ft 0kts
10-Feb-19 10:46 35.156514 -114.556159 264 705ft 0kts
10-Feb-19 10:47 35.156514 -114.556159 264 705ft 0kts
10-Feb-19 10:48 35.156514 -114.556159 264 705ft 0kts
10-Feb-19 10:49 35.156514 -114.556159 264 705ft 0kts
10-Feb-19 10:50 35.156514 -114.556159 264 705ft 0kts
10-Feb-19 10:51 35.156514 -114.556159 264 705ft 0kts
10-Feb-19 10:52 35.156514 -114.556159 264 705ft 0kts
10-Feb-19 10:53 35.156514 -114.556159 264 705ft 0kts
10-Feb-19 10:54 35.156514 -114.556159 264 705ft 0kts
10-Feb-19 10:55 35.156514 -114.556159 264 705ft 0kts

Navigation Log

Ident Type
Flight plan parsing failed, navigation log unavailable